sensor_id;sensor_type;location;lat;lon;timestamp;pressure;altitude;pressure_sealevel;temperature;humidity
41306;BME280;27051;50.376;19.152;2022-10-16T00:01:25;98323.99;;;15.32;57.04
41306;BME280;27051;50.376;19.152;2022-10-16T00:03:55;98331.31;;;15.31;57.08
41306;BME280;27051;50.376;19.152;2022-10-16T00:06:23;98329.18;;;15.31;57.22
41306;BME280;27051;50.376;19.152;2022-10-16T00:08:53;98329.60;;;15.33;57.53
41306;BME280;27051;50.376;19.152;2022-10-16T00:11:23;98335.44;;;15.35;57.32
41306;BME280;27051;50.376;19.152;2022-10-16T00:13:54;98338.19;;;15.38;57.48
41306;BME280;27051;50.376;19.152;2022-10-16T00:16:22;98340.13;;;15.38;57.49
41306;BME280;27051;50.376;19.152;2022-10-16T00:18:49;98336.48;;;15.40;57.47
41306;BME280;27051;50.376;19.152;2022-10-16T00:21:19;98332.77;;;15.38;57.55
41306;BME280;27051;50.376;19.152;2022-10-16T00:23:56;98330.03;;;15.35;57.66
41306;BME280;27051;50.376;19.152;2022-10-16T00:26:25;98326.55;;;15.34;57.62
41306;BME280;27051;50.376;19.152;2022-10-16T00:28:54;98325.73;;;15.34;57.70
41306;BME280;27051;50.376;19.152;2022-10-16T00:31:22;98335.80;;;15.33;57.74
41306;BME280;27051;50.376;19.152;2022-10-16T00:33:49;98328.83;;;15.32;57.90
41306;BME280;27051;50.376;19.152;2022-10-16T00:36:19;98331.73;;;15.33;57.98
41306;BME280;27051;50.376;19.152;2022-10-16T00:38:55;98329.45;;;15.35;57.99
41306;BME280;27051;50.376;19.152;2022-10-16T00:41:25;98336.80;;;15.35;57.92
41306;BME280;27051;50.376;19.152;2022-10-16T00:44:00;98332.58;;;15.37;58.08
41306;BME280;27051;50.376;19.152;2022-10-16T00:46:40;98331.58;;;15.36;58.09
41306;BME280;27051;50.376;19.152;2022-10-16T00:49:13;98333.35;;;15.38;58.12
41306;BME280;27051;50.376;19.152;2022-10-16T00:51:45;98342.05;;;15.37;58.11
41306;BME280;27051;50.376;19.152;2022-10-16T00:54:29;98338.50;;;15.33;58.19
41306;BME280;27051;50.376;19.152;2022-10-16T00:57:03;98337.15;;;15.33;58.27
41306;BME280;27051;50.376;19.152;2022-10-16T00:59:36;98340.78;;;15.31;58.11
41306;BME280;27051;50.376;19.152;2022-10-16T01:02:07;98336.42;;;15.23;58.09
41306;BME280;27051;50.376;19.152;2022-10-16T01:04:42;98344.42;;;15.16;57.89
41306;BME280;27051;50.376;19.152;2022-10-16T01:10:27;98353.16;;;15.06;57.94
41306;BME280;27051;50.376;19.152;2022-10-16T01:13:04;98351.16;;;14.89;57.95
41306;BME280;27051;50.376;19.152;2022-10-16T01:15:47;98360.58;;;14.86;58.21
41306;BME280;27051;50.376;19.152;2022-10-16T01:18:37;98357.59;;;14.81;58.17
41306;BME280;27051;50.376;19.152;2022-10-16T01:21:22;98358.82;;;14.74;58.08
41306;BME280;27051;50.376;19.152;2022-10-16T01:24:03;98353.28;;;14.67;58.13
41306;BME280;27051;50.376;19.152;2022-10-16T01:30:00;98355.56;;;14.55;58.58
41306;BME280;27051;50.376;19.152;2022-10-16T01:38:02;98353.38;;;14.61;58.87
41306;BME280;27051;50.376;19.152;2022-10-16T01:40:39;98355.42;;;14.58;58.55
41306;BME280;27051;50.376;19.152;2022-10-16T01:43:13;98350.02;;;14.48;58.62
41306;BME280;27051;50.376;19.152;2022-10-16T01:45:44;98353.42;;;14.45;58.59
41306;BME280;27051;50.376;19.152;2022-10-16T01:48:14;98348.16;;;14.42;58.84
41306;BME280;27051;50.376;19.152;2022-10-16T01:50:49;98352.64;;;14.44;58.89
41306;BME280;27051;50.376;19.152;2022-10-16T01:53:19;98349.45;;;14.39;58.50
41306;BME280;27051;50.376;19.152;2022-10-16T01:55:48;98355.30;;;14.31;58.60
41306;BME280;27051;50.376;19.152;2022-10-16T01:58:16;98351.33;;;14.25;58.79
41306;BME280;27051;50.376;19.152;2022-10-16T02:00:44;98356.50;;;14.24;58.81
41306;BME280;27051;50.376;19.152;2022-10-16T02:03:15;98353.66;;;14.17;58.80
41306;BME280;27051;50.376;19.152;2022-10-16T02:08:19;98355.67;;;14.20;59.01
41306;BME280;27051;50.376;19.152;2022-10-16T02:10:46;98365.27;;;14.17;58.98
41306;BME280;27051;50.376;19.152;2022-10-16T02:16:00;98367.32;;;14.24;59.57
41306;BME280;27051;50.376;19.152;2022-10-16T02:18:27;98367.95;;;14.27;59.36
41306;BME280;27051;50.376;19.152;2022-10-16T02:21:19;98369.67;;;14.25;59.52
41306;BME280;27051;50.376;19.152;2022-10-16T02:23:58;98375.66;;;14.25;59.74
41306;BME280;27051;50.376;19.152;2022-10-16T02:26:31;98383.63;;;14.18;59.19
41306;BME280;27051;50.376;19.152;2022-10-16T02:29:06;98380.77;;;14.10;59.21
41306;BME280;27051;50.376;19.152;2022-10-16T02:31:35;98375.44;;;14.04;59.34
41306;BME280;27051;50.376;19.152;2022-10-16T02:34:06;98378.14;;;14.04;59.40
41306;BME280;27051;50.376;19.152;2022-10-16T02:36:35;98379.41;;;14.01;59.68
41306;BME280;27051;50.376;19.152;2022-10-16T02:39:03;98374.44;;;14.03;59.49
41306;BME280;27051;50.376;19.152;2022-10-16T02:41:31;98379.98;;;14.00;59.33
41306;BME280;27051;50.376;19.152;2022-10-16T02:43:58;98378.53;;;13.97;59.05
41306;BME280;27051;50.376;19.152;2022-10-16T02:46:25;98379.09;;;13.86;59.12
41306;BME280;27051;50.376;19.152;2022-10-16T02:48:52;98378.25;;;13.82;59.23
41306;BME280;27051;50.376;19.152;2022-10-16T02:51:18;98371.91;;;13.75;59.06
41306;BME280;27051;50.376;19.152;2022-10-16T02:53:45;98378.70;;;13.68;59.24
41306;BME280;27051;50.376;19.152;2022-10-16T02:56:12;98380.13;;;13.62;59.23
41306;BME280;27051;50.376;19.152;2022-10-16T02:58:40;98387.99;;;13.52;59.17
41306;BME280;27051;50.376;19.152;2022-10-16T03:01:06;98384.78;;;13.46;59.39
41306;BME280;27051;50.376;19.152;2022-10-16T03:03:33;98382.83;;;13.37;59.42
41306;BME280;27051;50.376;19.152;2022-10-16T03:06:00;98395.85;;;13.41;60.17
41306;BME280;27051;50.376;19.152;2022-10-16T03:08:26;98402.47;;;13.43;60.01
41306;BME280;27051;50.376;19.152;2022-10-16T03:10:53;98394.78;;;13.45;59.55
41306;BME280;27051;50.376;19.152;2022-10-16T03:13:20;98398.71;;;13.32;59.46
41306;BME280;27051;50.376;19.152;2022-10-16T03:15:47;98400.43;;;13.24;59.41
41306;BME280;27051;50.376;19.152;2022-10-16T03:18:14;98409.23;;;13.21;59.36
41306;BME280;27051;50.376;19.152;2022-10-16T03:20:42;98396.56;;;13.16;59.29
41306;BME280;27051;50.376;19.152;2022-10-16T03:23:09;98404.80;;;13.13;59.69
41306;BME280;27051;50.376;19.152;2022-10-16T03:25:37;98400.09;;;13.10;60.18
41306;BME280;27051;50.376;19.152;2022-10-16T03:28:04;98411.98;;;13.15;60.23
41306;BME280;27051;50.376;19.152;2022-10-16T03:30:30;98411.05;;;13.17;60.42
41306;BME280;27051;50.376;19.152;2022-10-16T03:32:58;98405.39;;;13.22;59.94
41306;BME280;27051;50.376;19.152;2022-10-16T03:35:25;98404.43;;;13.15;59.51
41306;BME280;27051;50.376;19.152;2022-10-16T03:37:51;98410.66;;;13.09;59.58
41306;BME280;27051;50.376;19.152;2022-10-16T03:40:19;98412.24;;;13.10;59.64
41306;BME280;27051;50.376;19.152;2022-10-16T03:42:45;98410.53;;;13.12;59.73
41306;BME280;27051;50.376;19.152;2022-10-16T03:45:12;98409.75;;;13.11;59.57
41306;BME280;27051;50.376;19.152;2022-10-16T03:47:39;98421.32;;;13.12;59.70
41306;BME280;27051;50.376;19.152;2022-10-16T03:50:06;98417.98;;;13.09;59.54
41306;BME280;27051;50.376;19.152;2022-10-16T03:52:34;98420.02;;;13.06;59.52
41306;BME280;27051;50.376;19.152;2022-10-16T03:55:00;98422.16;;;13.06;59.62
41306;BME280;27051;50.376;19.152;2022-10-16T03:57:27;98416.77;;;13.00;59.56
41306;BME280;27051;50.376;19.152;2022-10-16T03:59:53;98419.73;;;12.95;59.51
41306;BME280;27051;50.376;19.152;2022-10-16T04:02:20;98419.65;;;12.91;59.52
41306;BME280;27051;50.376;19.152;2022-10-16T04:04:47;98422.81;;;12.87;59.40
41306;BME280;27051;50.376;19.152;2022-10-16T04:07:13;98420.03;;;12.84;59.60
41306;BME280;27051;50.376;19.152;2022-10-16T04:09:40;98415.91;;;12.80;59.67
41306;BME280;27051;50.376;19.152;2022-10-16T04:12:07;98422.41;;;12.79;59.66
41306;BME280;27051;50.376;19.152;2022-10-16T04:14:34;98422.41;;;12.79;59.95
41306;BME280;27051;50.376;19.152;2022-10-16T04:17:01;98425.02;;;12.75;59.88
41306;BME280;27051;50.376;19.152;2022-10-16T04:19:27;98430.63;;;12.76;59.85
41306;BME280;27051;50.376;19.152;2022-10-16T04:21:54;98427.36;;;12.77;59.97
41306;BME280;27051;50.376;19.152;2022-10-16T04:24:21;98426.81;;;12.77;59.78
41306;BME280;27051;50.376;19.152;2022-10-16T04:26:47;98427.93;;;12.76;59.79
41306;BME280;27051;50.376;19.152;2022-10-16T04:29:14;98437.12;;;12.81;60.37
41306;BME280;27051;50.376;19.152;2022-10-16T04:31:41;98433.45;;;12.96;60.64
41306;BME280;27051;50.376;19.152;2022-10-16T04:34:08;98431.91;;;13.11;60.59
41306;BME280;27051;50.376;19.152;2022-10-16T04:36:35;98433.20;;;13.17;60.38
41306;BME280;27051;50.376;19.152;2022-10-16T04:39:02;98433.72;;;13.07;60.24
41306;BME280;27051;50.376;19.152;2022-10-16T04:41:29;98433.00;;;13.16;60.35
41306;BME280;27051;50.376;19.152;2022-10-16T04:43:55;98433.96;;;13.23;60.32
41306;BME280;27051;50.376;19.152;2022-10-16T04:46:22;98427.50;;;13.12;59.84
41306;BME280;27051;50.376;19.152;2022-10-16T04:48:49;98432.17;;;13.06;60.14
41306;BME280;27051;50.376;19.152;2022-10-16T04:51:15;98430.97;;;12.97;60.38
41306;BME280;27051;50.376;19.152;2022-10-16T04:53:42;98431.22;;;12.92;60.47
41306;BME280;27051;50.376;19.152;2022-10-16T04:56:09;98428.56;;;12.86;60.54
41306;BME280;27051;50.376;19.152;2022-10-16T04:58:35;98425.88;;;12.86;60.75
41306;BME280;27051;50.376;19.152;2022-10-16T05:01:02;98426.98;;;12.85;60.69
41306;BME280;27051;50.376;19.152;2022-10-16T05:03:29;98425.74;;;12.88;60.78
41306;BME280;27051;50.376;19.152;2022-10-16T05:05:56;98430.65;;;12.92;60.89
41306;BME280;27051;50.376;19.152;2022-10-16T05:08:22;98427.82;;;12.95;60.74
41306;BME280;27051;50.376;19.152;2022-10-16T05:10:49;98430.11;;;12.93;60.51
41306;BME280;27051;50.376;19.152;2022-10-16T05:13:16;98433.84;;;12.88;60.61
41306;BME280;27051;50.376;19.152;2022-10-16T05:15:48;98444.70;;;12.92;61.13
41306;BME280;27051;50.376;19.152;2022-10-16T05:18:15;98447.52;;;12.95;61.24
41306;BME280;27051;50.376;19.152;2022-10-16T05:20:42;98451.44;;;12.98;60.94
41306;BME280;27051;50.376;19.152;2022-10-16T05:23:09;98457.30;;;12.94;60.84
41306;BME280;27051;50.376;19.152;2022-10-16T05:25:36;98461.59;;;12.89;60.95
41306;BME280;27051;50.376;19.152;2022-10-16T05:28:03;98469.43;;;12.94;61.29
41306;BME280;27051;50.376;19.152;2022-10-16T05:30:30;98465.58;;;13.01;61.27
41306;BME280;27051;50.376;19.152;2022-10-16T05:32:57;98467.56;;;13.10;61.00
41306;BME280;27051;50.376;19.152;2022-10-16T05:35:24;98466.86;;;13.13;61.29
41306;BME280;27051;50.376;19.152;2022-10-16T05:37:52;98475.69;;;13.20;61.32
41306;BME280;27051;50.376;19.152;2022-10-16T05:40:19;98476.05;;;13.18;61.29
41306;BME280;27051;50.376;19.152;2022-10-16T05:42:45;98485.20;;;13.36;61.58
41306;BME280;27051;50.376;19.152;2022-10-16T05:45:12;98479.23;;;13.52;61.51
41306;BME280;27051;50.376;19.152;2022-10-16T05:47:39;98485.07;;;13.54;61.00
41306;BME280;27051;50.376;19.152;2022-10-16T05:50:07;98488.03;;;13.49;60.97
41306;BME280;27051;50.376;19.152;2022-10-16T05:52:34;98485.80;;;13.45;61.01
41306;BME280;27051;50.376;19.152;2022-10-16T05:55:01;98487.59;;;13.31;61.04
41306;BME280;27051;50.376;19.152;2022-10-16T05:57:27;98484.97;;;13.35;61.40
41306;BME280;27051;50.376;19.152;2022-10-16T05:59:54;98492.11;;;13.43;61.42
41306;BME280;27051;50.376;19.152;2022-10-16T06:02:21;98491.13;;;13.41;61.20
41306;BME280;27051;50.376;19.152;2022-10-16T06:04:47;98500.44;;;13.44;61.34
41306;BME280;27051;50.376;19.152;2022-10-16T06:07:14;98505.33;;;13.54;61.63
41306;BME280;27051;50.376;19.152;2022-10-16T06:09:41;98512.28;;;13.55;61.50
41306;BME280;27051;50.376;19.152;2022-10-16T06:12:07;98517.55;;;13.58;61.61
41306;BME280;27051;50.376;19.152;2022-10-16T06:14:34;98512.59;;;13.60;61.52
41306;BME280;27051;50.376;19.152;2022-10-16T06:17:01;98521.01;;;13.64;61.68
41306;BME280;27051;50.376;19.152;2022-10-16T06:19:27;98528.34;;;13.74;61.90
41306;BME280;27051;50.376;19.152;2022-10-16T06:21:54;98518.94;;;13.83;61.96
41306;BME280;27051;50.376;19.152;2022-10-16T06:24:20;98520.53;;;13.94;62.02
41306;BME280;27051;50.376;19.152;2022-10-16T06:26:47;98523.20;;;14.00;61.80
41306;BME280;27051;50.376;19.152;2022-10-16T06:29:14;98523.84;;;14.03;61.93
41306;BME280;27051;50.376;19.152;2022-10-16T06:31:40;98533.68;;;14.11;61.83
41306;BME280;27051;50.376;19.152;2022-10-16T06:34:10;98534.76;;;14.17;61.99
41306;BME280;27051;50.376;19.152;2022-10-16T06:36:38;98532.39;;;14.31;62.01
41306;BME280;27051;50.376;19.152;2022-10-16T06:39:05;98536.38;;;14.37;61.66
41306;BME280;27051;50.376;19.152;2022-10-16T06:41:33;98534.98;;;14.43;61.97
41306;BME280;27051;50.376;19.152;2022-10-16T06:44:00;98536.30;;;14.59;62.17
41306;BME280;27051;50.376;19.152;2022-10-16T06:46:27;98547.77;;;14.72;61.86
41306;BME280;27051;50.376;19.152;2022-10-16T06:48:54;98551.13;;;14.85;61.83
41306;BME280;27051;50.376;19.152;2022-10-16T06:51:22;98551.27;;;14.92;61.72
41306;BME280;27051;50.376;19.152;2022-10-16T06:53:52;98547.42;;;15.03;61.75
41306;BME280;27051;50.376;19.152;2022-10-16T06:56:22;98543.06;;;15.17;61.90
41306;BME280;27051;50.376;19.152;2022-10-16T06:58:51;98548.08;;;15.38;61.75
41306;BME280;27051;50.376;19.152;2022-10-16T07:01:21;98549.17;;;15.57;61.43
41306;BME280;27051;50.376;19.152;2022-10-16T07:03:49;98547.45;;;15.68;61.25
41306;BME280;27051;50.376;19.152;2022-10-16T07:06:20;98550.59;;;15.93;61.35
41306;BME280;27051;50.376;19.152;2022-10-16T07:08:47;98551.18;;;16.19;61.42
41306;BME280;27051;50.376;19.152;2022-10-16T07:11:16;98551.47;;;16.41;60.83
41306;BME280;27051;50.376;19.152;2022-10-16T07:13:46;98555.34;;;16.66;60.62
41306;BME280;27051;50.376;19.152;2022-10-16T07:16:17;98559.53;;;16.90;60.41
41306;BME280;27051;50.376;19.152;2022-10-16T07:18:45;98550.76;;;17.04;60.15
41306;BME280;27051;50.376;19.152;2022-10-16T07:21:20;98552.03;;;17.14;59.80
41306;BME280;27051;50.376;19.152;2022-10-16T07:23:51;98555.20;;;17.20;59.64
41306;BME280;27051;50.376;19.152;2022-10-16T07:26:21;98554.42;;;17.19;59.26
41306;BME280;27051;50.376;19.152;2022-10-16T07:28:49;98557.80;;;17.26;59.41
41306;BME280;27051;50.376;19.152;2022-10-16T07:31:17;98564.16;;;17.41;59.44
41306;BME280;27051;50.376;19.152;2022-10-16T07:33:47;98567.17;;;17.52;59.06
41306;BME280;27051;50.376;19.152;2022-10-16T07:36:15;98568.84;;;17.81;58.88
41306;BME280;27051;50.376;19.152;2022-10-16T07:38:43;98580.25;;;18.25;58.58
41306;BME280;27051;50.376;19.152;2022-10-16T07:41:13;98581.29;;;18.65;58.52
41306;BME280;27051;50.376;19.152;2022-10-16T07:43:47;98578.77;;;19.04;57.64
41306;BME280;27051;50.376;19.152;2022-10-16T07:46:19;98574.61;;;19.46;56.19
41306;BME280;27051;50.376;19.152;2022-10-16T07:48:47;98576.63;;;19.75;56.00
41306;BME280;27051;50.376;19.152;2022-10-16T07:51:17;98569.02;;;19.99;55.01
41306;BME280;27051;50.376;19.152;2022-10-16T07:53:45;98564.32;;;20.25;55.18
41306;BME280;27051;50.376;19.152;2022-10-16T07:56:14;98560.59;;;20.48;55.02
41306;BME280;27051;50.376;19.152;2022-10-16T07:58:41;98561.53;;;20.71;53.88
41306;BME280;27051;50.376;19.152;2022-10-16T08:01:10;98569.05;;;20.93;53.49
41306;BME280;27051;50.376;19.152;2022-10-16T08:03:41;98570.00;;;20.98;52.17
41306;BME280;27051;50.376;19.152;2022-10-16T08:06:10;98577.86;;;20.89;52.22
41306;BME280;27051;50.376;19.152;2022-10-16T08:08:36;98582.02;;;20.71;52.66
41306;BME280;27051;50.376;19.152;2022-10-16T08:11:03;98589.25;;;20.55;52.75
41306;BME280;27051;50.376;19.152;2022-10-16T08:13:31;98583.61;;;20.54;52.06
41306;BME280;27051;50.376;19.152;2022-10-16T08:15:59;98589.05;;;20.69;51.82
41306;BME280;27051;50.376;19.152;2022-10-16T08:18:25;98588.03;;;20.78;51.79
41306;BME280;27051;50.376;19.152;2022-10-16T08:20:57;98580.75;;;20.97;51.77
41306;BME280;27051;50.376;19.152;2022-10-16T08:23:24;98585.36;;;21.15;51.02
41306;BME280;27051;50.376;19.152;2022-10-16T08:25:52;98578.30;;;21.21;50.77
41306;BME280;27051;50.376;19.152;2022-10-16T08:28:22;98580.02;;;21.27;49.91
41306;BME280;27051;50.376;19.152;2022-10-16T08:30:49;98589.38;;;21.33;50.22
41306;BME280;27051;50.376;19.152;2022-10-16T08:33:15;98589.16;;;21.39;50.03
41306;BME280;27051;50.376;19.152;2022-10-16T08:35:42;98589.34;;;21.43;49.00
41306;BME280;27051;50.376;19.152;2022-10-16T08:38:09;98594.77;;;21.47;48.96
41306;BME280;27051;50.376;19.152;2022-10-16T08:40:36;98598.14;;;21.43;47.79
41306;BME280;27051;50.376;19.152;2022-10-16T08:48:50;98600.69;;;21.38;48.54
41306;BME280;27051;50.376;19.152;2022-10-16T08:51:26;98603.43;;;21.35;47.38
41306;BME280;27051;50.376;19.152;2022-10-16T08:56:28;98598.31;;;21.37;48.49
41306;BME280;27051;50.376;19.152;2022-10-16T08:58:54;98598.87;;;21.47;48.05
41306;BME280;27051;50.376;19.152;2022-10-16T09:01:49;98596.83;;;21.65;48.23
41306;BME280;27051;50.376;19.152;2022-10-16T09:04:14;98604.06;;;21.94;47.47
41306;BME280;27051;50.376;19.152;2022-10-16T09:09:50;98599.21;;;22.12;46.50
41306;BME280;27051;50.376;19.152;2022-10-16T09:12:42;98600.32;;;22.18;46.59
41306;BME280;27051;50.376;19.152;2022-10-16T09:15:43;98595.95;;;22.31;46.50
41306;BME280;27051;50.376;19.152;2022-10-16T09:23:40;98594.53;;;22.54;45.59
41306;BME280;27051;50.376;19.152;2022-10-16T09:26:10;98598.18;;;22.63;46.20
41306;BME280;27051;50.376;19.152;2022-10-16T09:28:38;98603.52;;;22.77;45.13
41306;BME280;27051;50.376;19.152;2022-10-16T09:31:05;98605.19;;;22.67;44.88
41306;BME280;27051;50.376;19.152;2022-10-16T09:33:37;98613.05;;;22.62;45.13
41306;BME280;27051;50.376;19.152;2022-10-16T09:36:05;98623.52;;;22.51;44.10
41306;BME280;27051;50.376;19.152;2022-10-16T09:38:34;98619.14;;;22.39;44.84
41306;BME280;27051;50.376;19.152;2022-10-16T09:43:47;98625.05;;;22.07;44.64
41306;BME280;27051;50.376;19.152;2022-10-16T09:46:36;98628.27;;;21.95;44.79
41306;BME280;27051;50.376;19.152;2022-10-16T09:49:20;98626.77;;;21.87;44.95
41306;BME280;27051;50.376;19.152;2022-10-16T09:51:35;98629.50;;;21.91;44.87
41306;BME280;27051;50.376;19.152;2022-10-16T09:54:14;98628.09;;;21.94;44.71
41306;BME280;27051;50.376;19.152;2022-10-16T09:56:43;98630.99;;;21.99;44.34
41306;BME280;27051;50.376;19.152;2022-10-16T10:01:51;98630.13;;;22.09;44.01
41306;BME280;27051;50.376;19.152;2022-10-16T10:04:23;98636.77;;;22.08;44.52
41306;BME280;27051;50.376;19.152;2022-10-16T10:06:52;98636.33;;;22.17;44.54
41306;BME280;27051;50.376;19.152;2022-10-16T10:09:22;98638.61;;;22.29;44.62
41306;BME280;27051;50.376;19.152;2022-10-16T10:17:17;98639.73;;;22.54;43.83
41306;BME280;27051;50.376;19.152;2022-10-16T10:19:59;98640.53;;;22.54;43.64
41306;BME280;27051;50.376;19.152;2022-10-16T10:22:42;98644.86;;;22.52;43.77
41306;BME280;27051;50.376;19.152;2022-10-16T10:25:26;98639.17;;;22.51;43.98
41306;BME280;27051;50.376;19.152;2022-10-16T10:31:34;98633.47;;;22.35;44.07
41306;BME280;27051;50.376;19.152;2022-10-16T10:34:28;98632.27;;;22.36;44.17
41306;BME280;27051;50.376;19.152;2022-10-16T10:40:43;98638.74;;;22.33;44.62
41306;BME280;27051;50.376;19.152;2022-10-16T10:43:12;98649.73;;;22.30;44.44
41306;BME280;27051;50.376;19.152;2022-10-16T10:45:47;98644.20;;;22.11;44.45
41306;BME280;27051;50.376;19.152;2022-10-16T10:51:19;98637.63;;;21.98;44.74
41306;BME280;27051;50.376;19.152;2022-10-16T10:54:22;98631.16;;;22.03;44.74
41306;BME280;27051;50.376;19.152;2022-10-16T10:56:49;98626.20;;;22.10;44.50
41306;BME280;27051;50.376;19.152;2022-10-16T11:07:34;98617.60;;;22.11;44.99
41306;BME280;27051;50.376;19.152;2022-10-16T11:10:09;98638.07;;;22.22;44.93
41306;BME280;27051;50.376;19.152;2022-10-16T11:12:47;98626.75;;;22.17;44.74
41306;BME280;27051;50.376;19.152;2022-10-16T11:15:27;98623.84;;;22.12;44.55
41306;BME280;27051;50.376;19.152;2022-10-16T11:18:15;98627.91;;;22.16;44.76
41306;BME280;27051;50.376;19.152;2022-10-16T11:21:26;98631.11;;;22.37;44.67
41306;BME280;27051;50.376;19.152;2022-10-16T11:23:43;98633.58;;;22.65;44.47
41306;BME280;27051;50.376;19.152;2022-10-16T11:26:19;98629.42;;;22.88;44.56
41306;BME280;27051;50.376;19.152;2022-10-16T11:28:49;98632.54;;;23.09;44.32
41306;BME280;27051;50.376;19.152;2022-10-16T11:31:32;98630.34;;;23.12;44.17
41306;BME280;27051;50.376;19.152;2022-10-16T11:39:30;98630.30;;;23.77;44.02
41306;BME280;27051;50.376;19.152;2022-10-16T11:42:11;98640.59;;;23.85;42.86
41306;BME280;27051;50.376;19.152;2022-10-16T11:48:00;98616.78;;;24.37;42.35
41306;BME280;27051;50.376;19.152;2022-10-16T11:50:54;98620.43;;;26.23;41.58
41306;BME280;27051;50.376;19.152;2022-10-16T11:56:16;98618.59;;;29.53;38.74
41306;BME280;27051;50.376;19.152;2022-10-16T12:04:19;98611.94;;;31.14;35.25
41306;BME280;27051;50.376;19.152;2022-10-16T12:06:51;98620.98;;;31.43;33.26
41306;BME280;27051;50.376;19.152;2022-10-16T12:09:31;98628.14;;;31.68;32.68
41306;BME280;27051;50.376;19.152;2022-10-16T12:11:59;98614.50;;;33.39;31.24
41306;BME280;27051;50.376;19.152;2022-10-16T12:14:38;98616.42;;;35.16;31.56
41306;BME280;27051;50.376;19.152;2022-10-16T12:17:27;98612.66;;;35.41;30.71
41306;BME280;27051;50.376;19.152;2022-10-16T12:20:01;98616.91;;;35.15;27.69
41306;BME280;27051;50.376;19.152;2022-10-16T12:22:31;98616.13;;;35.46;27.79
41306;BME280;27051;50.376;19.152;2022-10-16T12:24:58;98614.36;;;36.02;26.28
41306;BME280;27051;50.376;19.152;2022-10-16T12:27:31;98618.89;;;35.94;27.97
41306;BME280;27051;50.376;19.152;2022-10-16T12:30:04;98627.42;;;34.63;26.76
41306;BME280;27051;50.376;19.152;2022-10-16T12:32:37;98623.41;;;32.99;28.66
41306;BME280;27051;50.376;19.152;2022-10-16T12:35:05;98629.86;;;31.61;29.08
41306;BME280;27051;50.376;19.152;2022-10-16T12:37:36;98624.58;;;30.56;29.92
41306;BME280;27051;50.376;19.152;2022-10-16T12:40:16;98635.22;;;29.89;30.43
41306;BME280;27051;50.376;19.152;2022-10-16T12:42:54;98626.88;;;29.75;30.63
41306;BME280;27051;50.376;19.152;2022-10-16T12:45:31;98630.13;;;30.28;30.24
41306;BME280;27051;50.376;19.152;2022-10-16T12:48:01;98629.89;;;32.18;28.62
41306;BME280;27051;50.376;19.152;2022-10-16T12:50:38;98636.54;;;33.62;27.75
41306;BME280;27051;50.376;19.152;2022-10-16T12:53:18;98643.38;;;32.10;27.87
41306;BME280;27051;50.376;19.152;2022-10-16T13:04:53;98632.64;;;33.89;28.08
41306;BME280;27051;50.376;19.152;2022-10-16T13:07:43;98644.95;;;36.11;26.02
41306;BME280;27051;50.376;19.152;2022-10-16T13:10:30;98639.80;;;36.04;26.50
41306;BME280;27051;50.376;19.152;2022-10-16T13:16:35;98651.47;;;33.10;27.42
41306;BME280;27051;50.376;19.152;2022-10-16T13:25:13;98644.53;;;32.23;27.79
41306;BME280;27051;50.376;19.152;2022-10-16T13:27:56;98653.13;;;31.07;28.66
41306;BME280;27051;50.376;19.152;2022-10-16T13:30:31;98649.23;;;31.18;28.66
41306;BME280;27051;50.376;19.152;2022-10-16T13:35:34;98651.89;;;30.71;29.39
41306;BME280;27051;50.376;19.152;2022-10-16T13:38:13;98650.19;;;32.09;29.42
41306;BME280;27051;50.376;19.152;2022-10-16T13:40:59;98642.30;;;34.80;27.21
41306;BME280;27051;50.376;19.152;2022-10-16T13:43:31;98642.30;;;34.80;27.21
41306;BME280;27051;50.376;19.152;2022-10-16T13:46:06;98659.27;;;35.87;25.49
41306;BME280;27051;50.376;19.152;2022-10-16T13:48:35;98648.77;;;36.68;25.27
41306;BME280;27051;50.376;19.152;2022-10-16T13:53:42;98641.70;;;35.81;25.28
41306;BME280;27051;50.376;19.152;2022-10-16T13:56:14;98643.00;;;35.22;25.76
41306;BME280;27051;50.376;19.152;2022-10-16T13:58:45;98640.62;;;35.94;25.13
41306;BME280;27051;50.376;19.152;2022-10-16T14:01:22;98637.73;;;36.86;24.18
41306;BME280;27051;50.376;19.152;2022-10-16T14:04:00;98634.78;;;37.68;23.25
41306;BME280;27051;50.376;19.152;2022-10-16T14:18:59;98632.63;;;39.37;22.06
41306;BME280;27051;50.376;19.152;2022-10-16T14:21:29;98649.66;;;37.25;22.21
41306;BME280;27051;50.376;19.152;2022-10-16T14:23:55;98653.09;;;34.93;23.30
41306;BME280;27051;50.376;19.152;2022-10-16T14:26:24;98661.13;;;33.19;24.41
41306;BME280;27051;50.376;19.152;2022-10-16T14:29:13;98668.99;;;31.81;25.63
41306;BME280;27051;50.376;19.152;2022-10-16T14:31:40;98682.34;;;30.34;26.66
41306;BME280;27051;50.376;19.152;2022-10-16T14:34:29;98688.81;;;29.15;27.73
41306;BME280;27051;50.376;19.152;2022-10-16T14:36:58;98688.14;;;28.29;28.56
41306;BME280;27051;50.376;19.152;2022-10-16T14:39:26;98694.52;;;27.49;29.68
41306;BME280;27051;50.376;19.152;2022-10-16T14:41:55;98689.70;;;26.95;31.20
41306;BME280;27051;50.376;19.152;2022-10-16T14:44:27;98688.81;;;26.36;32.18
41306;BME280;27051;50.376;19.152;2022-10-16T14:46:54;98683.00;;;25.97;31.31
41306;BME280;27051;50.376;19.152;2022-10-16T14:49:20;98687.61;;;25.48;33.52
41306;BME280;27051;50.376;19.152;2022-10-16T14:51:47;98684.66;;;25.07;32.72
41306;BME280;27051;50.376;19.152;2022-10-16T14:54:16;98683.34;;;24.72;34.21
41306;BME280;27051;50.376;19.152;2022-10-16T14:56:48;98685.42;;;24.40;33.77
41306;BME280;27051;50.376;19.152;2022-10-16T14:59:37;98674.52;;;24.21;34.53
41306;BME280;27051;50.376;19.152;2022-10-16T15:02:25;98681.06;;;24.04;34.79
41306;BME280;27051;50.376;19.152;2022-10-16T15:04:52;98678.88;;;23.80;35.16
41306;BME280;27051;50.376;19.152;2022-10-16T15:07:18;98683.52;;;23.52;36.39